createdAt,value
2019-05-10T00:03:12.013Z,99078.49
2019-05-10T00:08:32.725Z,99093.63
2019-05-10T00:13:37.290Z,99099.98
2019-05-10T00:18:39.659Z,99103.54
2019-05-10T00:23:41.772Z,99102.52
2019-05-10T00:28:44.131Z,99107.39
2019-05-10T00:33:46.180Z,99113.41
2019-05-10T00:38:48.140Z,99110.95
2019-05-10T00:43:50.311Z,99113.74
2019-05-10T00:48:52.263Z,99114.99
2019-05-10T00:53:54.705Z,99121.64
2019-05-10T00:58:56.802Z,99116.34
2019-05-10T01:03:58.864Z,99121.44
2019-05-10T01:09:01.037Z,99112.03
2019-05-10T01:14:04.459Z,99116.01
2019-05-10T01:19:06.553Z,99125.94
2019-05-10T01:24:08.742Z,99117.75
2019-05-10T01:29:11.038Z,99117.38
2019-05-10T01:34:16.374Z,99126.73
2019-05-10T01:39:18.399Z,99133.27
2019-05-10T01:44:20.466Z,99143.77
2019-05-10T01:49:22.561Z,99142.12
2019-05-10T01:54:24.843Z,99154.41
2019-05-10T01:59:26.908Z,99162.91
2019-05-10T02:04:29.471Z,99163.86
2019-05-10T02:09:33.329Z,99168.44
2019-05-10T02:14:35.565Z,99182.84
2019-05-10T02:19:37.831Z,99182.84
2019-05-10T02:24:40.135Z,99191.11
2019-05-10T02:29:43.231Z,99187.70
2019-05-10T02:34:45.239Z,99195.27
2019-05-10T02:39:47.314Z,99197.12
2019-05-10T02:44:49.572Z,99204.69
2019-05-10T02:49:51.656Z,99201.58
2019-05-10T02:54:54.294Z,99208.20
2019-05-10T02:59:57.547Z,99214.11
2019-05-10T03:04:59.656Z,99217.63
2019-05-10T03:10:18.794Z,99218.05
2019-05-10T03:15:20.886Z,99229.45
2019-05-10T03:20:23.563Z,99233.60
2019-05-10T03:25:26.483Z,99243.74
2019-05-10T03:30:30.794Z,99249.84
2019-05-10T03:35:32.740Z,99249.84
2019-05-10T03:40:35.090Z,99262.08
2019-05-10T03:45:37.121Z,99265.40
2019-05-10T03:50:39.179Z,99259.91
2019-05-10T03:55:43.005Z,99273.19
2019-05-10T04:00:45.426Z,99274.55
2019-05-10T04:05:47.539Z,99285.92
2019-05-10T04:10:51.686Z,99293.30
2019-05-10T04:15:56.532Z,99300.03
2019-05-10T04:20:58.691Z,99306.88
2019-05-10T04:26:00.910Z,99315.78
2019-05-10T04:31:03.172Z,99314.63
2019-05-10T04:36:05.149Z,99320.23
2019-05-10T04:41:07.268Z,99325.00
2019-05-10T04:46:09.269Z,99327.80
2019-05-10T04:51:11.409Z,99332.36
2019-05-10T04:56:14.573Z,99351.02
2019-05-10T05:01:16.817Z,99351.02
2019-05-10T05:06:18.998Z,99360.04
2019-05-10T05:11:21.086Z,99356.22
2019-05-10T05:16:23.048Z,99373.33
2019-05-10T05:21:25.022Z,99373.33
2019-05-10T05:26:26.998Z,99383.79
2019-05-10T05:31:29.129Z,99374.36
2019-05-10T05:36:31.331Z,99382.45
2019-05-10T05:41:47.759Z,99391.70
2019-05-10T05:47:11.951Z,99387.77
2019-05-10T05:52:14.936Z,99403.20
2019-05-10T05:57:16.994Z,99408.70
2019-05-10T06:02:19.249Z,99414.21
2019-05-10T06:07:21.324Z,99418.86
2019-05-10T06:12:23.526Z,99409.75
2019-05-10T06:17:29.352Z,99424.70
2019-05-10T06:22:29.637Z,99425.72
2019-05-10T06:27:35.430Z,99418.97
2019-05-10T06:32:36.975Z,99434.33
2019-05-10T06:37:39.054Z,99444.08
2019-05-10T06:42:42.780Z,99453.11
2019-05-10T06:47:47.933Z,99450.33
2019-05-10T06:52:52.428Z,99458.84
2019-05-10T06:58:00.462Z,99464.27
2019-05-10T07:03:01.402Z,99458.53
2019-05-10T07:08:14.022Z,99446.38
2019-05-10T07:13:07.832Z,99460.91
2019-05-10T07:18:09.950Z,99458.06
2019-05-10T07:23:11.937Z,99471.05
2019-05-10T07:28:17.686Z,99464.98
2019-05-10T07:33:19.161Z,99469.73
2019-05-10T07:38:23.745Z,99465.69
2019-05-10T07:43:28.733Z,99463.25
2019-05-10T07:48:29.384Z,99464.75
2019-05-10T07:53:31.500Z,99465.30
2019-05-10T07:58:38.222Z,99448.30
2019-05-10T08:03:44.252Z,99483.59
2019-05-10T08:08:43.846Z,99480.89
2019-05-10T08:13:48.460Z,99493.83
2019-05-10T08:18:50.144Z,99494.66
2019-05-10T08:23:54.074Z,99495.16
2019-05-10T08:28:56.479Z,99499.86
2019-05-10T08:33:59.199Z,99497.09
2019-05-10T08:39:09.609Z,99501.78
2019-05-10T08:44:16.711Z,99495.95
2019-05-10T08:49:12.963Z,99513.36
2019-05-10T08:54:14.984Z,99512.69
2019-05-10T08:59:23.596Z,99526.81
2019-05-10T09:04:22.241Z,99512.99
2019-05-10T09:09:24.488Z,99525.09
2019-05-10T09:14:26.463Z,99534.59
2019-05-10T09:19:37.221Z,99542.96
2019-05-10T09:24:34.943Z,99541.48
2019-05-10T09:29:37.495Z,99544.14
2019-05-10T09:34:42.437Z,99550.57
2019-05-10T09:39:44.161Z,99547.95
2019-05-10T09:44:47.864Z,99553.48
2019-05-10T09:49:58.503Z,99556.23
2019-05-10T09:54:57.005Z,99561.48
2019-05-10T09:59:59.267Z,99572.38
2019-05-10T10:05:01.324Z,99577.35
2019-05-10T10:10:07.256Z,99577.48
2019-05-10T10:15:11.897Z,99584.28
2019-05-10T10:20:13.288Z,99594.19
2019-05-10T10:25:17.571Z,99605.94
2019-05-10T10:30:21.550Z,99605.94
2019-05-10T10:35:27.672Z,99597.30
2019-05-10T10:40:28.138Z,99593.97
2019-05-10T10:45:30.320Z,99610.71
2019-05-10T10:50:32.524Z,99614.83
2019-05-10T10:55:39.401Z,99609.34
2019-05-10T11:00:39.850Z,99618.35
2019-05-10T11:05:42.134Z,99623.72
2019-05-10T11:10:46.176Z,99615.38
2019-05-10T11:15:48.322Z,99631.41
2019-05-10T11:20:53.921Z,99629.91
2019-05-10T11:25:56.462Z,99627.22
2019-05-10T11:31:00.836Z,99637.58
2019-05-10T11:36:07.033Z,99625.66
2019-05-10T11:41:11.645Z,99621.00
2019-05-10T11:46:11.777Z,99631.84
2019-05-10T11:51:17.277Z,99639.16
2019-05-10T11:56:25.077Z,99649.91
2019-05-10T12:01:22.735Z,99636.36
2019-05-10T12:06:24.957Z,99636.72
2019-05-10T12:11:33.221Z,99633.37
2019-05-10T12:16:33.274Z,99645.01
2019-05-10T12:21:35.227Z,99635.51
2019-05-10T12:31:41.601Z,99665.36
2019-05-10T12:36:45.864Z,99653.81
2019-05-10T12:41:49.966Z,99656.82
2019-05-10T12:46:54.309Z,99655.30
2019-05-10T14:38:23.821Z,99750.95
2019-05-10T14:43:25.956Z,99751.09
2019-05-10T14:48:30.577Z,99754.49
2019-05-10T14:53:33.929Z,99752.03
2019-05-10T14:58:35.935Z,99757.37
2019-05-10T15:03:45.288Z,99755.72
2019-05-10T15:08:42.016Z,99770.06
2019-05-10T15:13:44.262Z,99767.40
2019-05-10T15:18:46.468Z,99779.44
2019-05-10T15:23:48.757Z,99798.09
2019-05-10T16:35:23.103Z,99856.41
2019-05-10T16:40:25.474Z,99864.45
2019-05-10T16:50:55.334Z,99884.86
2019-05-10T16:55:57.459Z,99894.09
2019-05-10T17:00:59.745Z,99896.95
2019-05-10T17:06:04.214Z,99910.98
2019-05-10T17:11:10.121Z,99914.61
2019-05-10T17:16:11.609Z,99927.82
2019-05-10T17:21:14.205Z,99925.21
2019-05-10T17:26:16.291Z,99927.58
2019-05-10T17:31:18.452Z,99930.83
2019-05-10T17:36:21.553Z,99941.05
2019-05-10T17:41:42.246Z,99940.59
2019-05-10T17:47:03.003Z,99944.18
2019-05-10T17:52:23.653Z,99956.03
2019-05-10T17:57:48.544Z,99950.88
2019-05-10T18:03:06.859Z,99959.16
2019-05-10T18:08:27.399Z,99961.62
2019-05-10T18:13:48.178Z,99963.09
2019-05-10T18:19:08.616Z,99952.25
2019-05-10T18:24:36.366Z,99957.96
2019-05-10T18:34:18.454Z,99959.80
2019-05-10T18:39:20.389Z,99953.72
2019-05-10T18:49:21.913Z,99967.72
2019-05-10T18:54:24.014Z,99966.03
2019-05-10T18:59:26.206Z,99971.20
2019-05-10T19:04:29.821Z,99980.05
2019-05-10T19:09:32.007Z,99991.09
2019-05-10T19:14:33.993Z,99998.98
2019-05-10T19:19:41.505Z,100007.03
2019-05-10T19:24:40.005Z,100009.16
2019-05-10T19:29:45.568Z,100021.34
2019-05-10T19:40:07.867Z,100033.24
2019-05-10T19:45:12.948Z,100038.56
2019-05-10T19:50:14.300Z,100029.11
2019-05-10T19:55:19.278Z,100034.25
2019-05-10T20:00:21.107Z,100035.99
2019-05-10T20:05:24.463Z,100033.81
2019-05-10T20:10:27.264Z,100033.24
2019-05-10T20:15:29.594Z,100025.45
2019-05-10T20:20:31.800Z,100026.72
2019-05-10T20:31:34.291Z,100031.10
2019-05-10T20:36:38.479Z,100036.63
2019-05-10T20:41:40.873Z,100043.59
2019-05-10T20:46:42.969Z,100040.98
2019-05-10T20:51:45.187Z,100043.52
2019-05-10T20:56:47.330Z,100036.52
2019-05-10T21:01:49.408Z,100026.10
2019-05-10T21:06:51.468Z,100031.29
2019-05-10T21:11:53.619Z,100022.69
2019-05-10T21:16:55.824Z,100020.36
2019-05-10T21:21:57.881Z,100014.52
2019-05-10T21:26:59.946Z,100017.96
2019-05-10T21:37:14.626Z,100036.25
2019-05-10T21:42:16.677Z,100040.37
2019-05-10T21:47:18.699Z,100052.33
2019-05-10T21:52:20.808Z,100057.03
2019-05-10T21:57:22.790Z,100058.92
2019-05-10T22:02:25.028Z,100061.93
2019-05-10T22:07:27.194Z,100065.11
2019-05-10T22:12:29.340Z,100059.12
2019-05-10T22:17:31.441Z,100056.31
2019-05-10T22:22:33.577Z,100059.81
2019-05-10T22:27:36.572Z,100063.50
2019-05-10T22:32:38.796Z,100069.09
2019-05-10T22:37:40.960Z,100055.44
2019-05-10T22:42:43.014Z,100072.13
2019-05-10T22:47:45.188Z,100080.02
2019-05-10T22:52:47.276Z,100091.78
2019-05-10T22:57:49.426Z,100077.81
2019-05-10T23:02:51.508Z,100074.72
2019-05-10T23:07:53.756Z,100080.20
2019-05-10T23:12:55.992Z,100085.66
2019-05-10T23:17:58.180Z,100085.90
2019-05-10T23:23:00.203Z,100091.04
2019-05-10T23:28:02.223Z,100091.39
2019-05-10T23:38:38.008Z,100088.40
2019-05-10T23:43:40.081Z,100070.91
2019-05-10T23:48:42.225Z,100067.14
2019-05-10T23:53:44.364Z,100059.94
2019-05-10T23:58:46.377Z,100070.30
